No Warnings, Watches, or Advisories

Active alerts


No alerts

Amazon Weather

Hours of Daylight

13 hrs 49 min 29 sec
of Daylight Today
graph 57.6% Day 42.4% Night Which is
2 min 22 sec Shorter
Than Yesterday

South West Webcam Still Photo more information South West Webcam Still Photo


You find our weather info also at:

UK Metoffice

Weather Underground

Mid-Atlantic Weather Network

WeatherlinkIP

Citizen Weather Observer Program (CWOP)

HAMweather, WeatherForYou, PWS Weather



Nearby METAR Reports

   
KDUJ - Du Bois, Pennsylvania, USA
Distance from station: NNE 16 mi
Updated: Aug 14 2018 4:00 am
Mist, Overcast  
Mist, Overcast  
   Wind: West 4.6 mph
Wind: West 4.6 mph
Temperature: 62.6°F
Dew Point: 62.6°F
Humidity: 100%
Barometer: 29.98 inHg
Clouds: Overcast
Visibility: 3 mi
Cloud details: Overcast 200 ft
KDUJ 140800Z AUTO 27004KT 3/4SM BR OVC002 17/17 A2998 RMK AO2 T01720172
KIDI - Indiana/Stewart, Pennsylvania, USA
Distance from station: SSW 23 mi
Updated: Aug 14 2018 4:15 am
Mist, Overcast  
Mist, Overcast  
   Wind: WSW 4.6 mph
Wind: WSW 4.6 mph
Temperature: 64.4°F
Dew Point: 64.4°F
Humidity: 100%
Barometer: 30.03 inHg
Clouds: Overcast
Visibility: 4 mi
Cloud details: Overcast 400 ft
KIDI 140815Z AUTO 24004KT 4SM BR OVC004 18/18 A3003 RMK A01
KFIG - Clearfield, Pennsylvania, USA
Distance from station: ENE 31 mi
Updated: Aug 14 2018 3:54 am
Mist, Overcast  
Mist, Overcast  
   Wind: SW 3.5 mph
Wind: SW 3.5 mph
Temperature: 64.4°F
Dew Point: 64.4°F
Humidity: 100%
Barometer: 29.98 inHg
Clouds: Overcast
Visibility: 6 mi
Cloud details: Mostly Cloudy 100 ft,
Mostly Cloudy 4500 ft,
Overcast 6000 ft
KFIG 140754Z AUTO 23003KT 6SM BR BKN001 BKN045 OVC060 18/18 A2998 RMK AO2 SLP144 T01780178
KJST - Johnstown, Pennsylvania, USA
Distance from station: S 44 mi
Updated: Aug 14 2018 4:11 am
Light Rain, Overcast  
Light Rain, Overcast  
   Wind: West 6.9 mph
Wind: West 6.9 mph
Temperature: 60.8°F
Dew Point: 57.2°F
Humidity: 88%
Barometer: 30 inHg
Clouds: Overcast
Visibility: 7 mi
Cloud details: Partly Cloudy 1000 ft,
Overcast 9500 ft
KJST 140811Z AUTO 26006KT 7SM -RA SCT010 OVC095 16/14 A3000 RMK AO2 RAB0757 P0000 T01610144
KPIT - Pittsburgh, Pennsylvania, USA
Distance from station: WSW 74 mi
Updated: Aug 14 2018 3:51 am
Mostly Cloudy  
Mostly Cloudy  
   Wind: WSW 4.6 mph
Wind: WSW 4.6 mph
Temperature: 62.6°F
Dew Point: 62.6°F
Humidity: 100%
Barometer: 29.99 inHg
Clouds: Mostly Cloudy
Visibility: 9 mi
Cloud details: Partly Cloudy 3500 ft,
Mostly Cloudy 7000 ft,
Mostly Cloudy 14000 ft
KPIT 140751Z 24004KT 9SM SCT035 BKN070 BKN140 17/17 A2999 RMK AO2 SLP158 T01670167
KLBE - Latrobe/Westmorl, Pennsylvania, USA
Distance from station: SSW 52 mi
Updated: Aug 14 2018 4:15 am
Overcast  
Overcast  
   Wind: SSW 4.6 mph
Wind: SSW 4.6 mph
Temperature: 62.6°F
Dew Point: 62.6°F
Humidity: 100%
Barometer: 30 inHg
Clouds: Overcast
Visibility: 10 mi
Cloud details: Mostly Cloudy 1000 ft,
Overcast 10000 ft
KLBE 140815Z AUTO 20004KT 10SM BKN010 OVC100 17/17 A3000 RMK AO2
KBTP - Butler Co., Pennsylvania, USA
Distance from station: WSW 52 mi
Updated: Aug 14 2018 4:12 am
Mist, Mostly Cloudy  
Mist, Mostly Cloudy  
   Wind: Calm
Wind: Calm
Temperature: 62.6°F
Dew Point: 62.6°F
Humidity: 100%
Barometer: 30 inHg
Clouds: Mostly Cloudy
Visibility: 2 mi
Cloud details: Mostly Cloudy 10000 ft
KBTP 140812Z AUTO 00000KT 2SM BR BKN100 17/17 A3000 RMK AO2
KUCP - New Castle Muni, Pennsylvania, USA
Distance from station: W 75 mi
Updated: Aug 14 2018 3:56 am
Overcast  
Overcast  
   Wind: Calm
Wind: Calm
Temperature: 62.6°F
Dew Point: 62.6°F
Humidity: 100%
Barometer: 30 inHg
Clouds: Overcast
Visibility: 7 mi
Cloud details: Partly Cloudy 1800 ft,
Mostly Cloudy 2600 ft,
Overcast 10000 ft
KUCP 140756Z AUTO 00000KT 7SM SCT018 BKN026 OVC100 17/17 A3000 RMK AO2 SLP169 T01720172
KFKL - Franklin, Pennsylvania, USA
Distance from station: WNW 54 mi
Updated: Aug 14 2018 3:56 am
Mostly Cloudy  
Mostly Cloudy  
   Wind: SW 3.5 mph
Wind: SW 3.5 mph
Temperature: 60.8°F
Dew Point: 60.8°F
Humidity: 100%
Barometer: 30.01 inHg
Clouds: Mostly Cloudy
Visibility: 7 mi
Cloud details: Mostly Cloudy 1300 ft,
Mostly Cloudy 9000 ft
KFKL 140756Z AUTO 23003KT 7SM BKN013 BKN090 16/16 A3001 RMK AO2 SLP156 T01610161
KAOO - Altoona, Pennsylvania, USA
Distance from station: SE 57 mi
Updated: Aug 14 2018 3:53 am
Overcast  
Overcast  
   Wind: WNW 3.5 mph
Wind: WNW 3.5 mph
Temperature: 66.2°F
Dew Point: 62.6°F
Humidity: 88%
Barometer: 29.97 inHg
Clouds: Overcast
Visibility: 9 mi
Cloud details: Mostly Cloudy 3900 ft,
Mostly Cloudy 4700 ft,
Overcast 5500 ft
KAOO 140753Z AUTO 29003KT 9SM BKN039 BKN047 OVC055 19/17 A2997 RMK AO2 SLP141 T01890167
KUNV - State College, Pennsylvania, USA
Distance from station: E 61 mi
Updated: Aug 13 2018 10:47 pm
NOT Current
Mist, Mostly Cloudy  
Mist, Mostly Cloudy  
   Wind: Calm
Wind: Calm
Temperature: 66.2°F
Dew Point: 64.4°F
Humidity: 94%
Barometer: 29.98 inHg
Clouds: Mostly Cloudy
Visibility: 4 mi
Cloud details: Partly Cloudy 3000 ft,
Mostly Cloudy 6000 ft
KUNV 140247Z 00000KT 4SM BR SCT030 BKN060 19/18 A2998
KBFD - Bradford, Pennsylvania, USA
Distance from station: NNE 62 mi
Updated: Aug 14 2018 4:13 am
Overcast  
Overcast  
   Wind: WNW 4.6 mph
Wind: WNW 4.6 mph
Temperature: 62.6°F
Dew Point: 62.6°F
Humidity: 100%
Barometer: 29.99 inHg
Clouds: Overcast
Visibility: 10 mi
Cloud details: Mostly Cloudy 500 ft,
Overcast 7000 ft
KBFD 140813Z AUTO 29004KT 10SM BKN005 OVC070 17/17 A2999 RMK AO2 T01720167

Script developed by  Saratoga-weather.org Adapted for the template by  Weerstation Leuven

Equipment we use:

Weather-station
Davis VP2

Weather-program
Cumulus

Weather-server
Dell Inspiron 3521

Provider
Host On A Rope

Davis VP2

Cumulus

Dell Inspiron 3521

Host On A Rope